sensor_id;sensor_type;location;lat;lon;timestamp;pressure;altitude;pressure_sealevel;temperature;humidity
20628;BME280;10473;42.734;24.258;2023-07-09T00:00:46;92287.59;;;19.43;58.09
20628;BME280;10473;42.734;24.258;2023-07-09T00:03:15;92278.41;;;19.40;57.92
20628;BME280;10473;42.734;24.258;2023-07-09T00:05:45;92288.22;;;19.50;57.95
20628;BME280;10473;42.734;24.258;2023-07-09T00:08:24;92272.19;;;19.43;59.08
20628;BME280;10473;42.734;24.258;2023-07-09T00:10:53;92276.28;;;19.51;58.18
20628;BME280;10473;42.734;24.258;2023-07-09T00:13:23;92278.03;;;19.61;57.84
20628;BME280;10473;42.734;24.258;2023-07-09T00:15:52;92284.84;;;19.66;58.00
20628;BME280;10473;42.734;24.258;2023-07-09T00:18:20;92290.59;;;19.68;58.02
20628;BME280;10473;42.734;24.258;2023-07-09T00:20:48;92279.88;;;19.64;58.53
20628;BME280;10473;42.734;24.258;2023-07-09T00:23:16;92270.63;;;19.46;58.32
20628;BME280;10473;42.734;24.258;2023-07-09T00:25:46;92270.19;;;19.28;59.59
20628;BME280;10473;42.734;24.258;2023-07-09T00:28:14;92285.84;;;19.33;59.92
20628;BME280;10473;42.734;24.258;2023-07-09T00:30:45;92282.72;;;19.34;60.20
20628;BME280;10473;42.734;24.258;2023-07-09T00:33:14;92281.50;;;19.39;59.51
20628;BME280;10473;42.734;24.258;2023-07-09T00:35:42;92282.25;;;19.39;59.63
20628;BME280;10473;42.734;24.258;2023-07-09T00:38:14;92285.84;;;19.33;58.82
20628;BME280;10473;42.734;24.258;2023-07-09T00:40:47;92293.53;;;19.31;59.55
20628;BME280;10473;42.734;24.258;2023-07-09T00:43:16;92288.16;;;19.31;59.40
20628;BME280;10473;42.734;24.258;2023-07-09T00:46:11;92282.50;;;19.25;59.78
20628;BME280;10473;42.734;24.258;2023-07-09T00:48:44;92274.47;;;19.22;60.71
20628;BME280;10473;42.734;24.258;2023-07-09T00:51:14;92259.63;;;19.14;60.27
20628;BME280;10473;42.734;24.258;2023-07-09T00:53:44;92277.97;;;19.19;61.05
20628;BME280;10473;42.734;24.258;2023-07-09T00:56:16;92276.81;;;19.20;61.22
20628;BME280;10473;42.734;24.258;2023-07-09T00:58:46;92274.22;;;19.13;61.58
20628;BME280;10473;42.734;24.258;2023-07-09T01:01:18;92273.16;;;19.07;60.97
20628;BME280;10473;42.734;24.258;2023-07-09T01:03:49;92288.47;;;19.10;61.22
20628;BME280;10473;42.734;24.258;2023-07-09T01:06:23;92285.13;;;19.02;59.92
20628;BME280;10473;42.734;24.258;2023-07-09T01:08:54;92281.34;;;19.00;60.07
20628;BME280;10473;42.734;24.258;2023-07-09T01:11:22;92273.81;;;18.91;60.65
20628;BME280;10473;42.734;24.258;2023-07-09T01:13:52;92264.66;;;18.85;59.97
20628;BME280;10473;42.734;24.258;2023-07-09T01:16:26;92279.59;;;18.90;61.03
20628;BME280;10473;42.734;24.258;2023-07-09T01:18:54;92270.56;;;18.77;62.33
20628;BME280;10473;42.734;24.258;2023-07-09T01:21:23;92274.72;;;18.81;61.77
20628;BME280;10473;42.734;24.258;2023-07-09T01:23:51;92265.56;;;18.79;62.02
20628;BME280;10473;42.734;24.258;2023-07-09T01:26:23;92273.56;;;18.82;62.49
20628;BME280;10473;42.734;24.258;2023-07-09T01:28:52;92278.16;;;18.82;62.99
20628;BME280;10473;42.734;24.258;2023-07-09T01:31:20;92276.25;;;18.82;59.88
20628;BME280;10473;42.734;24.258;2023-07-09T01:33:48;92270.16;;;18.78;61.37
20628;BME280;10473;42.734;24.258;2023-07-09T01:36:19;92281.22;;;18.84;61.86
20628;BME280;10473;42.734;24.258;2023-07-09T01:38:51;92278.56;;;18.80;63.20
20628;BME280;10473;42.734;24.258;2023-07-09T01:41:19;92279.66;;;18.83;62.83
20628;BME280;10473;42.734;24.258;2023-07-09T01:43:48;92286.94;;;18.86;62.66
20628;BME280;10473;42.734;24.258;2023-07-09T01:46:16;92282.00;;;18.81;63.01
20628;BME280;10473;42.734;24.258;2023-07-09T01:48:43;92289.22;;;18.87;62.28
20628;BME280;10473;42.734;24.258;2023-07-09T01:51:15;92284.94;;;18.90;61.33
20628;BME280;10473;42.734;24.258;2023-07-09T01:53:44;92292.59;;;18.91;61.70
20628;BME280;10473;42.734;24.258;2023-07-09T01:56:13;92302.97;;;18.89;61.33
20628;BME280;10473;42.734;24.258;2023-07-09T01:58:41;92296.91;;;18.85;63.41
20628;BME280;10473;42.734;24.258;2023-07-09T02:01:11;92291.69;;;18.75;64.12
20628;BME280;10473;42.734;24.258;2023-07-09T02:03:38;92287.44;;;18.77;64.15
20628;BME280;10473;42.734;24.258;2023-07-09T02:06:06;92285.81;;;18.83;63.48
20628;BME280;10473;42.734;24.258;2023-07-09T02:08:35;92283.06;;;18.87;62.91
20628;BME280;10473;42.734;24.258;2023-07-09T02:11:03;92288.81;;;18.89;62.66
20628;BME280;10473;42.734;24.258;2023-07-09T02:13:33;92291.19;;;18.83;63.75
20628;BME280;10473;42.734;24.258;2023-07-09T02:16:01;92286.22;;;18.82;63.32
20628;BME280;10473;42.734;24.258;2023-07-09T02:18:29;92290.00;;;18.84;63.23
20628;BME280;10473;42.734;24.258;2023-07-09T02:21:00;92291.94;;;18.84;62.68
20628;BME280;10473;42.734;24.258;2023-07-09T02:23:28;92292.91;;;18.70;64.19
20628;BME280;10473;42.734;24.258;2023-07-09T02:25:56;92292.16;;;18.70;64.00
20628;BME280;10473;42.734;24.258;2023-07-09T02:28:23;92291.13;;;18.60;63.51
20628;BME280;10473;42.734;24.258;2023-07-09T02:30:52;92291.91;;;18.61;63.75
20628;BME280;10473;42.734;24.258;2023-07-09T02:33:20;92299.88;;;18.64;61.51
20628;BME280;10473;42.734;24.258;2023-07-09T02:35:49;92287.28;;;18.61;61.76
20628;BME280;10473;42.734;24.258;2023-07-09T02:38:17;92288.53;;;18.53;63.74
20628;BME280;10473;42.734;24.258;2023-07-09T02:40:46;92302.31;;;18.55;63.43
20628;BME280;10473;42.734;24.258;2023-07-09T02:43:13;92300.03;;;18.54;60.54
20628;BME280;10473;42.734;24.258;2023-07-09T02:45:42;92297.34;;;18.54;62.38
20628;BME280;10473;42.734;24.258;2023-07-09T02:48:12;92297.34;;;18.54;61.11
20628;BME280;10473;42.734;24.258;2023-07-09T02:50:40;92293.25;;;18.46;63.49
20628;BME280;10473;42.734;24.258;2023-07-09T02:53:08;92294.41;;;18.45;61.37
20628;BME280;10473;42.734;24.258;2023-07-09T02:55:39;92288.38;;;18.37;61.16
20628;BME280;10473;42.734;24.258;2023-07-09T02:58:06;92286.00;;;18.43;61.16
20628;BME280;10473;42.734;24.258;2023-07-09T03:00:34;92290.50;;;18.49;62.09
20628;BME280;10473;42.734;24.258;2023-07-09T03:03:02;92304.97;;;18.59;61.29
20628;BME280;10473;42.734;24.258;2023-07-09T03:05:31;92299.72;;;18.48;62.00
20628;BME280;10473;42.734;24.258;2023-07-09T03:07:58;92302.72;;;18.54;61.47
20628;BME280;10473;42.734;24.258;2023-07-09T03:10:28;92301.84;;;18.64;60.86
20628;BME280;10473;42.734;24.258;2023-07-09T03:12:56;92308.72;;;18.65;60.18
20628;BME280;10473;42.734;24.258;2023-07-09T03:15:23;92303.34;;;18.65;59.69
20628;BME280;10473;42.734;24.258;2023-07-09T03:17:51;92285.88;;;18.53;60.78
20628;BME280;10473;42.734;24.258;2023-07-09T03:20:19;92299.59;;;18.59;60.92
20628;BME280;10473;42.734;24.258;2023-07-09T03:22:48;92308.06;;;18.57;62.82
20628;BME280;10473;42.734;24.258;2023-07-09T03:25:15;92296.59;;;18.53;62.84
20628;BME280;10473;42.734;24.258;2023-07-09T03:27:47;92297.25;;;18.31;63.88
20628;BME280;10473;42.734;24.258;2023-07-09T03:30:15;92304.94;;;18.29;65.42
20628;BME280;10473;42.734;24.258;2023-07-09T03:32:43;92311.09;;;18.26;65.88
20628;BME280;10473;42.734;24.258;2023-07-09T03:35:11;92316.69;;;18.42;65.43
20628;BME280;10473;42.734;24.258;2023-07-09T03:37:39;92307.44;;;18.13;66.68
20628;BME280;10473;42.734;24.258;2023-07-09T03:40:10;92311.28;;;17.75;67.79
20628;BME280;10473;42.734;24.258;2023-07-09T03:42:38;92304.00;;;17.38;69.88
20628;BME280;10473;42.734;24.258;2023-07-09T03:45:06;92318.22;;;17.72;69.13
20628;BME280;10473;42.734;24.258;2023-07-09T03:47:34;92316.13;;;17.50;69.95
20628;BME280;10473;42.734;24.258;2023-07-09T03:50:01;92316.00;;;17.64;69.84
20628;BME280;10473;42.734;24.258;2023-07-09T03:52:29;92323.91;;;17.41;70.60
20628;BME280;10473;42.734;24.258;2023-07-09T03:54:57;92320.91;;;17.25;72.19
20628;BME280;10473;42.734;24.258;2023-07-09T03:57:28;92320.72;;;17.53;70.99
20628;BME280;10473;42.734;24.258;2023-07-09T03:59:55;92320.06;;;17.42;71.42
20628;BME280;10473;42.734;24.258;2023-07-09T04:02:23;92325.44;;;17.35;71.78
20628;BME280;10473;42.734;24.258;2023-07-09T04:04:51;92324.91;;;17.54;71.07
20628;BME280;10473;42.734;24.258;2023-07-09T04:07:19;92335.75;;;17.43;71.64
20628;BME280;10473;42.734;24.258;2023-07-09T04:09:47;92346.00;;;17.52;71.96
20628;BME280;10473;42.734;24.258;2023-07-09T04:12:14;92322.19;;;17.57;71.42
20628;BME280;10473;42.734;24.258;2023-07-09T04:14:44;92334.53;;;17.48;72.33
20628;BME280;10473;42.734;24.258;2023-07-09T04:17:12;92339.34;;;17.67;71.06
20628;BME280;10473;42.734;24.258;2023-07-09T04:19:40;92335.72;;;17.84;70.66
20628;BME280;10473;42.734;24.258;2023-07-09T04:22:08;92346.22;;;18.05;70.53
20628;BME280;10473;42.734;24.258;2023-07-09T04:24:37;92344.97;;;18.13;70.14
20628;BME280;10473;42.734;24.258;2023-07-09T04:27:05;92355.22;;;18.21;71.22
20628;BME280;10473;42.734;24.258;2023-07-09T04:29:33;92343.88;;;18.44;69.82
20628;BME280;10473;42.734;24.258;2023-07-09T04:32:03;92341.00;;;18.58;68.77
20628;BME280;10473;42.734;24.258;2023-07-09T04:34:31;92355.78;;;18.99;68.21
20628;BME280;10473;42.734;24.258;2023-07-09T04:36:59;92359.31;;;19.23;70.05
20628;BME280;10473;42.734;24.258;2023-07-09T04:39:26;92363.50;;;19.50;68.91
20628;BME280;10473;42.734;24.258;2023-07-09T04:41:54;92361.31;;;19.88;66.76
20628;BME280;10473;42.734;24.258;2023-07-09T04:44:22;92365.53;;;20.12;65.76
20628;BME280;10473;42.734;24.258;2023-07-09T04:46:51;92370.22;;;20.47;64.17
20628;BME280;10473;42.734;24.258;2023-07-09T04:49:20;92373.72;;;20.83;62.67
20628;BME280;10473;42.734;24.258;2023-07-09T04:51:47;92368.59;;;21.08;61.26
20628;BME280;10473;42.734;24.258;2023-07-09T04:54:15;92368.97;;;21.42;61.05
20628;BME280;10473;42.734;24.258;2023-07-09T04:56:43;92374.56;;;21.83;61.46
20628;BME280;10473;42.734;24.258;2023-07-09T04:59:11;92381.25;;;22.23;59.32
20628;BME280;10473;42.734;24.258;2023-07-09T05:01:38;92380.72;;;22.28;56.61
20628;BME280;10473;42.734;24.258;2023-07-09T05:04:06;92375.25;;;22.31;57.54
20628;BME280;10473;42.734;24.258;2023-07-09T05:06:35;92376.97;;;22.54;57.31
20628;BME280;10473;42.734;24.258;2023-07-09T05:09:03;92385.19;;;22.34;57.65
20628;BME280;10473;42.734;24.258;2023-07-09T05:11:34;92379.31;;;22.23;57.72
20628;BME280;10473;42.734;24.258;2023-07-09T05:14:02;92393.06;;;22.29;56.96
20628;BME280;10473;42.734;24.258;2023-07-09T05:16:30;92393.72;;;22.49;56.79
20628;BME280;10473;42.734;24.258;2023-07-09T05:18:58;92390.28;;;22.61;58.35
20628;BME280;10473;42.734;24.258;2023-07-09T05:21:25;92388.38;;;22.74;57.40
20628;BME280;10473;42.734;24.258;2023-07-09T05:23:54;92387.13;;;22.91;58.29
20628;BME280;10473;42.734;24.258;2023-07-09T05:26:22;92387.06;;;23.07;54.74
20628;BME280;10473;42.734;24.258;2023-07-09T05:28:50;92383.47;;;23.10;56.19
20628;BME280;10473;42.734;24.258;2023-07-09T05:31:18;92377.47;;;23.18;56.53
20628;BME280;10473;42.734;24.258;2023-07-09T05:33:45;92378.38;;;22.58;55.41
20628;BME280;10473;42.734;24.258;2023-07-09T05:36:13;92375.13;;;22.92;58.29
20628;BME280;10473;42.734;24.258;2023-07-09T05:38:42;92379.81;;;23.04;56.20
20628;BME280;10473;42.734;24.258;2023-07-09T05:41:11;92364.56;;;23.10;56.51
20628;BME280;10473;42.734;24.258;2023-07-09T05:43:38;92358.53;;;23.31;52.72
20628;BME280;10473;42.734;24.258;2023-07-09T05:46:06;92367.84;;;23.30;53.75
20628;BME280;10473;42.734;24.258;2023-07-09T05:48:34;92379.25;;;23.09;54.61
20628;BME280;10473;42.734;24.258;2023-07-09T05:51:04;92382.94;;;23.15;55.93
20628;BME280;10473;42.734;24.258;2023-07-09T05:53:35;92385.97;;;23.04;54.94
20628;BME280;10473;42.734;24.258;2023-07-09T05:56:03;92386.28;;;22.94;54.62
20628;BME280;10473;42.734;24.258;2023-07-09T05:58:32;92387.94;;;22.63;54.17
20628;BME280;10473;42.734;24.258;2023-07-09T06:01:00;92388.63;;;22.51;54.24
20628;BME280;10473;42.734;24.258;2023-07-09T06:03:29;92385.44;;;22.40;54.79
20628;BME280;10473;42.734;24.258;2023-07-09T06:05:57;92381.06;;;22.30;56.89
20628;BME280;10473;42.734;24.258;2023-07-09T06:08:26;92380.91;;;22.21;54.97
20628;BME280;10473;42.734;24.258;2023-07-09T06:10:56;92383.03;;;22.13;55.55
20628;BME280;10473;42.734;24.258;2023-07-09T06:13:24;92372.84;;;22.05;56.46
20628;BME280;10473;42.734;24.258;2023-07-09T06:15:55;92358.03;;;21.81;57.27
20628;BME280;10473;42.734;24.258;2023-07-09T06:18:24;92371.94;;;21.95;56.85
20628;BME280;10473;42.734;24.258;2023-07-09T06:20:57;92373.31;;;21.87;57.17
20628;BME280;10473;42.734;24.258;2023-07-09T06:23:25;92377.31;;;21.95;55.06
20628;BME280;10473;42.734;24.258;2023-07-09T06:25:53;92372.22;;;21.85;59.10
20628;BME280;10473;42.734;24.258;2023-07-09T06:28:22;92369.50;;;21.85;58.64
20628;BME280;10473;42.734;24.258;2023-07-09T06:30:50;92358.53;;;21.92;57.00
20628;BME280;10473;42.734;24.258;2023-07-09T06:33:20;92367.78;;;22.07;55.61
20628;BME280;10473;42.734;24.258;2023-07-09T06:35:48;92365.84;;;22.07;55.43
20628;BME280;10473;42.734;24.258;2023-07-09T06:38:16;92370.31;;;22.14;55.33
20628;BME280;10473;42.734;24.258;2023-07-09T06:40:44;92375.72;;;22.14;56.31
20628;BME280;10473;42.734;24.258;2023-07-09T06:43:12;92369.44;;;22.17;58.55
20628;BME280;10473;42.734;24.258;2023-07-09T06:45:50;92356.31;;;22.19;58.14
20628;BME280;10473;42.734;24.258;2023-07-09T06:48:20;92358.81;;;22.26;58.09
20628;BME280;10473;42.734;24.258;2023-07-09T06:50:48;92359.75;;;22.19;55.52
20628;BME280;10473;42.734;24.258;2023-07-09T06:53:16;92360.97;;;22.31;56.82
20628;BME280;10473;42.734;24.258;2023-07-09T06:55:46;92365.88;;;22.36;56.97
20628;BME280;10473;42.734;24.258;2023-07-09T06:58:16;92366.34;;;22.47;56.35
20628;BME280;10473;42.734;24.258;2023-07-09T07:00:43;92373.94;;;22.52;56.46
20628;BME280;10473;42.734;24.258;2023-07-09T07:03:16;92340.38;;;22.08;57.25
20628;BME280;10473;42.734;24.258;2023-07-09T07:05:46;92355.78;;;22.24;57.16
20628;BME280;10473;42.734;24.258;2023-07-09T07:08:16;92353.03;;;22.11;57.60
20628;BME280;10473;42.734;24.258;2023-07-09T07:10:45;92362.06;;;22.05;59.05
20628;BME280;10473;42.734;24.258;2023-07-09T07:13:13;92360.69;;;22.13;59.47
20628;BME280;10473;42.734;24.258;2023-07-09T07:15:41;92358.75;;;22.42;59.30
20628;BME280;10473;42.734;24.258;2023-07-09T07:18:08;92355.84;;;22.65;59.33
20628;BME280;10473;42.734;24.258;2023-07-09T07:20:36;92361.50;;;22.83;61.62
20628;BME280;10473;42.734;24.258;2023-07-09T07:23:05;92353.03;;;22.68;58.19
20628;BME280;10473;42.734;24.258;2023-07-09T07:25:33;92355.66;;;22.97;59.48
20628;BME280;10473;42.734;24.258;2023-07-09T07:28:00;92348.25;;;23.38;60.10
20628;BME280;10473;42.734;24.258;2023-07-09T07:30:28;92350.75;;;23.33;56.63
20628;BME280;10473;42.734;24.258;2023-07-09T07:32:56;92347.38;;;23.66;56.91
20628;BME280;10473;42.734;24.258;2023-07-09T07:35:24;92353.53;;;23.92;55.42
20628;BME280;10473;42.734;24.258;2023-07-09T07:37:51;92349.56;;;24.18;55.68
20628;BME280;10473;42.734;24.258;2023-07-09T07:40:20;92355.78;;;24.40;54.26
20628;BME280;10473;42.734;24.258;2023-07-09T07:42:48;92354.94;;;24.52;53.82
20628;BME280;10473;42.734;24.258;2023-07-09T07:45:17;92354.06;;;23.99;48.02
20628;BME280;10473;42.734;24.258;2023-07-09T07:47:44;92350.41;;;24.15;51.25
20628;BME280;10473;42.734;24.258;2023-07-09T07:50:12;92350.66;;;24.42;52.74
20628;BME280;10473;42.734;24.258;2023-07-09T07:52:40;92355.72;;;24.74;52.85
20628;BME280;10473;42.734;24.258;2023-07-09T07:55:08;92348.69;;;25.07;49.24
20628;BME280;10473;42.734;24.258;2023-07-09T07:57:37;92348.09;;;25.34;46.49
20628;BME280;10473;42.734;24.258;2023-07-09T08:00:06;92355.56;;;25.51;45.49
20628;BME280;10473;42.734;24.258;2023-07-09T08:02:41;92314.06;;;25.42;45.67
20628;BME280;10473;42.734;24.258;2023-07-09T08:05:11;92343.56;;;25.70;45.25
20628;BME280;10473;42.734;24.258;2023-07-09T08:07:39;92348.09;;;25.82;46.99
20628;BME280;10473;42.734;24.258;2023-07-09T08:10:07;92328.13;;;25.58;44.16
20628;BME280;10473;42.734;24.258;2023-07-09T08:12:37;92348.09;;;25.82;44.80
20628;BME280;10473;42.734;24.258;2023-07-09T08:15:05;92336.97;;;25.89;45.87
20628;BME280;10473;42.734;24.258;2023-07-09T08:17:33;92330.94;;;25.37;46.04
20628;BME280;10473;42.734;24.258;2023-07-09T08:20:01;92334.44;;;24.94;46.48
20628;BME280;10473;42.734;24.258;2023-07-09T08:22:28;92334.81;;;25.27;48.51
20628;BME280;10473;42.734;24.258;2023-07-09T08:24:59;92332.31;;;24.89;47.36
20628;BME280;10473;42.734;24.258;2023-07-09T08:27:27;92340.50;;;24.98;47.35
20628;BME280;10473;42.734;24.258;2023-07-09T08:29:56;92336.47;;;24.04;46.88
20628;BME280;10473;42.734;24.258;2023-07-09T08:32:24;92336.53;;;24.47;47.21
20628;BME280;10473;42.734;24.258;2023-07-09T08:34:51;92334.72;;;24.87;50.20
20628;BME280;10473;42.734;24.258;2023-07-09T08:37:19;92326.13;;;24.24;44.28
20628;BME280;10473;42.734;24.258;2023-07-09T08:39:46;92340.13;;;24.44;44.22
20628;BME280;10473;42.734;24.258;2023-07-09T08:42:19;92335.31;;;23.92;44.23
20628;BME280;10473;42.734;24.258;2023-07-09T08:45:03;92336.72;;;24.31;45.89
20628;BME280;10473;42.734;24.258;2023-07-09T08:47:47;92332.72;;;24.78;47.01
20628;BME280;10473;42.734;24.258;2023-07-09T08:50:22;92339.09;;;24.63;41.53
20628;BME280;10473;42.734;24.258;2023-07-09T08:52:53;92336.09;;;24.27;43.87
20628;BME280;10473;42.734;24.258;2023-07-09T08:55:25;92327.13;;;24.39;45.31
20628;BME280;10473;42.734;24.258;2023-07-09T08:57:58;92336.16;;;24.79;42.84
20628;BME280;10473;42.734;24.258;2023-07-09T09:00:57;92333.84;;;25.20;41.43
20628;BME280;10473;42.734;24.258;2023-07-09T09:03:30;92332.63;;;25.52;40.84
20628;BME280;10473;42.734;24.258;2023-07-09T09:06:01;92346.31;;;25.79;43.87
20628;BME280;10473;42.734;24.258;2023-07-09T09:08:37;92340.94;;;26.06;40.14
20628;BME280;10473;42.734;24.258;2023-07-09T09:11:16;92346.25;;;26.28;42.63
20628;BME280;10473;42.734;24.258;2023-07-09T09:13:47;92348.22;;;26.54;41.28
20628;BME280;10473;42.734;24.258;2023-07-09T09:16:26;92345.50;;;26.81;42.46
20628;BME280;10473;42.734;24.258;2023-07-09T09:18:59;92347.91;;;27.06;43.44
20628;BME280;10473;42.734;24.258;2023-07-09T09:21:31;92347.56;;;27.13;39.25
20628;BME280;10473;42.734;24.258;2023-07-09T09:24:12;92350.03;;;26.84;37.63
20628;BME280;10473;42.734;24.258;2023-07-09T09:26:42;92343.69;;;26.87;38.22
20628;BME280;10473;42.734;24.258;2023-07-09T09:29:12;92349.16;;;26.69;40.61
20628;BME280;10473;42.734;24.258;2023-07-09T09:31:43;92349.59;;;26.77;37.91
20628;BME280;10473;42.734;24.258;2023-07-09T09:34:18;92358.50;;;26.86;41.13
20628;BME280;10473;42.734;24.258;2023-07-09T09:36:47;92352.44;;;27.00;41.65
20628;BME280;10473;42.734;24.258;2023-07-09T09:39:16;92349.84;;;27.15;40.28
20628;BME280;10473;42.734;24.258;2023-07-09T09:41:51;92361.63;;;27.21;38.07
20628;BME280;10473;42.734;24.258;2023-07-09T09:44:21;92342.72;;;27.26;39.72
20628;BME280;10473;42.734;24.258;2023-07-09T09:46:50;92348.28;;;27.32;39.62
20628;BME280;10473;42.734;24.258;2023-07-09T09:49:18;92348.13;;;27.35;40.13
20628;BME280;10473;42.734;24.258;2023-07-09T09:51:47;92347.94;;;26.52;42.23
20628;BME280;10473;42.734;24.258;2023-07-09T09:54:18;92347.03;;;26.64;38.52
20628;BME280;10473;42.734;24.258;2023-07-09T09:56:48;92354.25;;;26.40;37.33
20628;BME280;10473;42.734;24.258;2023-07-09T09:59:20;92349.44;;;26.53;40.42
20628;BME280;10473;42.734;24.258;2023-07-09T10:01:58;92349.53;;;26.05;39.76
20628;BME280;10473;42.734;24.258;2023-07-09T10:04:27;92337.19;;;25.55;42.96
20628;BME280;10473;42.734;24.258;2023-07-09T10:06:56;92339.03;;;25.67;47.48
20628;BME280;10473;42.734;24.258;2023-07-09T10:09:36;92336.75;;;26.14;42.02
20628;BME280;10473;42.734;24.258;2023-07-09T10:12:13;92334.94;;;26.20;43.70
20628;BME280;10473;42.734;24.258;2023-07-09T10:14:48;92342.19;;;26.41;40.77
20628;BME280;10473;42.734;24.258;2023-07-09T10:17:23;92331.31;;;26.23;38.50
20628;BME280;10473;42.734;24.258;2023-07-09T10:19:58;92322.25;;;26.26;40.78
20628;BME280;10473;42.734;24.258;2023-07-09T10:22:40;92319.38;;;26.21;40.89
20628;BME280;10473;42.734;24.258;2023-07-09T10:25:27;92318.31;;;26.00;41.08
20628;BME280;10473;42.734;24.258;2023-07-09T10:28:08;92318.25;;;25.73;41.75
20628;BME280;10473;42.734;24.258;2023-07-09T10:30:46;92321.19;;;26.06;44.57
20628;BME280;10473;42.734;24.258;2023-07-09T10:33:25;92316.94;;;25.96;39.81
20628;BME280;10473;42.734;24.258;2023-07-09T10:36:00;92318.97;;;25.74;40.54
20628;BME280;10473;42.734;24.258;2023-07-09T10:38:40;92323.22;;;25.84;41.07
20628;BME280;10473;42.734;24.258;2023-07-09T10:41:13;92309.81;;;25.89;44.10
20628;BME280;10473;42.734;24.258;2023-07-09T10:43:44;92324.34;;;26.31;43.28
20628;BME280;10473;42.734;24.258;2023-07-09T10:46:15;92323.34;;;26.56;40.68
20628;BME280;10473;42.734;24.258;2023-07-09T10:48:46;92325.56;;;26.66;43.77
20628;BME280;10473;42.734;24.258;2023-07-09T10:51:22;92326.63;;;26.78;42.08
20628;BME280;10473;42.734;24.258;2023-07-09T10:53:56;92323.75;;;26.81;40.97
20628;BME280;10473;42.734;24.258;2023-07-09T10:56:27;92329.03;;;26.85;39.90
20628;BME280;10473;42.734;24.258;2023-07-09T10:58:58;92324.97;;;26.71;40.34
20628;BME280;10473;42.734;24.258;2023-07-09T11:01:31;92312.00;;;26.48;41.67
20628;BME280;10473;42.734;24.258;2023-07-09T11:04:05;92318.31;;;26.45;39.16
20628;BME280;10473;42.734;24.258;2023-07-09T11:06:39;92312.31;;;26.59;40.23
20628;BME280;10473;42.734;24.258;2023-07-09T11:09:16;92305.31;;;26.76;40.00
20628;BME280;10473;42.734;24.258;2023-07-09T11:11:49;92302.41;;;26.98;41.82
20628;BME280;10473;42.734;24.258;2023-07-09T11:14:24;92310.91;;;26.91;40.58
20628;BME280;10473;42.734;24.258;2023-07-09T11:16:55;92317.66;;;26.95;40.27
20628;BME280;10473;42.734;24.258;2023-07-09T11:19:26;92314.06;;;26.89;39.38
20628;BME280;10473;42.734;24.258;2023-07-09T11:22:05;92307.66;;;27.10;38.41
20628;BME280;10473;42.734;24.258;2023-07-09T11:24:36;92317.19;;;27.24;39.82
20628;BME280;10473;42.734;24.258;2023-07-09T11:27:21;92308.50;;;27.34;38.92
20628;BME280;10473;42.734;24.258;2023-07-09T11:29:57;92315.25;;;27.48;39.01
20628;BME280;10473;42.734;24.258;2023-07-09T11:32:26;92310.28;;;27.46;38.48
20628;BME280;10473;42.734;24.258;2023-07-09T11:35:06;92309.09;;;26.79;39.48
20628;BME280;10473;42.734;24.258;2023-07-09T11:37:44;92317.72;;;26.41;39.93
20628;BME280;10473;42.734;24.258;2023-07-09T11:40:14;92297.06;;;26.35;37.84
20628;BME280;10473;42.734;24.258;2023-07-09T11:42:51;92292.97;;;26.57;40.19
20628;BME280;10473;42.734;24.258;2023-07-09T11:45:21;92300.94;;;26.52;42.02
20628;BME280;10473;42.734;24.258;2023-07-09T11:47:55;92293.13;;;26.45;41.22
20628;BME280;10473;42.734;24.258;2023-07-09T11:50:28;92295.66;;;26.75;41.31
20628;BME280;10473;42.734;24.258;2023-07-09T11:52:59;92301.97;;;26.81;41.93
20628;BME280;10473;42.734;24.258;2023-07-09T11:55:33;92292.03;;;26.78;43.13
20628;BME280;10473;42.734;24.258;2023-07-09T11:58:08;92293.66;;;26.94;40.85
20628;BME280;10473;42.734;24.258;2023-07-09T12:00:39;92296.78;;;27.19;41.12
20628;BME280;10473;42.734;24.258;2023-07-09T12:03:10;92289.78;;;27.36;38.53
20628;BME280;10473;42.734;24.258;2023-07-09T12:05:48;92298.63;;;27.46;39.42
20628;BME280;10473;42.734;24.258;2023-07-09T12:08:17;92289.56;;;27.49;43.76
20628;BME280;10473;42.734;24.258;2023-07-09T12:10:46;92296.56;;;27.64;42.63
20628;BME280;10473;42.734;24.258;2023-07-09T12:13:14;92278.31;;;27.56;38.36
20628;BME280;10473;42.734;24.258;2023-07-09T12:15:42;92273.09;;;27.67;38.93
20628;BME280;10473;42.734;24.258;2023-07-09T12:18:11;92281.41;;;27.72;39.18
20628;BME280;10473;42.734;24.258;2023-07-09T12:20:42;92278.81;;;27.78;36.30
20628;BME280;10473;42.734;24.258;2023-07-09T12:23:21;92278.94;;;27.83;39.90
20628;BME280;10473;42.734;24.258;2023-07-09T12:25:50;92273.22;;;27.81;38.89
20628;BME280;10473;42.734;24.258;2023-07-09T12:28:19;92267.75;;;27.81;37.80
20628;BME280;10473;42.734;24.258;2023-07-09T12:30:48;92275.31;;;27.77;38.21
20628;BME280;10473;42.734;24.258;2023-07-09T12:33:17;92276.00;;;27.63;37.42
20628;BME280;10473;42.734;24.258;2023-07-09T12:35:49;92263.75;;;27.68;40.81
20628;BME280;10473;42.734;24.258;2023-07-09T12:38:18;92265.53;;;27.71;39.19
20628;BME280;10473;42.734;24.258;2023-07-09T12:40:48;92265.06;;;27.72;40.96
20628;BME280;10473;42.734;24.258;2023-07-09T12:43:19;92262.47;;;27.78;41.91
20628;BME280;10473;42.734;24.258;2023-07-09T12:45:47;92263.06;;;27.82;41.14
20628;BME280;10473;42.734;24.258;2023-07-09T12:48:15;92262.94;;;27.76;40.55
20628;BME280;10473;42.734;24.258;2023-07-09T12:50:50;92267.03;;;27.72;40.72
20628;BME280;10473;42.734;24.258;2023-07-09T12:53:20;92269.97;;;27.59;42.66
20628;BME280;10473;42.734;24.258;2023-07-09T12:55:48;92270.88;;;27.65;41.36
20628;BME280;10473;42.734;24.258;2023-07-09T12:58:19;92268.06;;;27.74;42.38
20628;BME280;10473;42.734;24.258;2023-07-09T13:00:48;92271.28;;;27.73;40.34
20628;BME280;10473;42.734;24.258;2023-07-09T13:03:19;92267.47;;;27.79;41.48
20628;BME280;10473;42.734;24.258;2023-07-09T13:05:55;92259.91;;;27.74;40.06